Time;durP1;ratioP1;P1;durP2;ratioP2;P2;SDS_P1;SDS_P2;PMS_P1;PMS_P2;Temp;Humidity;BMP_temperature;BMP_pressure;BME280_temperature;BME280_humidity;BME280_pressure;Samples;Min_cycle;Max_cycle;Signal;HPM_P1;HPM_P2
2021/06/01 00:01:40;;;;;;;5.18;4.05;;;12.60;91.30;;;;;;5013069;28;20075;-84
2021/06/01 00:04:08;;;;;;;5.55;3.95;;;12.60;91.30;;;;;;5009443;28;20050;-84
2021/06/01 00:06:34;;;;;;;7.72;4.30;;;12.60;91.40;;;;;;5024260;28;20068;-84
2021/06/01 00:09:01;;;;;;;5.72;3.97;;;12.50;91.40;;;;;;5004938;28;20085;-85
2021/06/01 00:11:27;;;;;;;8.60;4.43;;;12.50;91.50;;;;;;5007309;28;20038;-84
2021/06/01 00:13:52;;;;;;;10.07;4.22;;;12.40;91.70;;;;;;4998488;28;20173;-84
2021/06/01 00:16:19;;;;;;;6.65;4.53;;;12.40;91.80;;;;;;5000128;28;20053;-84
2021/06/01 00:18:45;;;;;;;7.53;4.65;;;12.40;91.80;;;;;;5005242;28;20041;-84
2021/06/01 00:21:11;;;;;;;6.68;4.18;;;12.40;91.90;;;;;;5007111;28;20095;-84
2021/06/01 00:23:37;;;;;;;6.05;4.07;;;12.40;91.90;;;;;;5011088;28;20042;-84
2021/06/01 00:26:08;;;;;;;8.07;4.65;;;12.40;91.90;;;;;;5006894;28;20540;-84
2021/06/01 00:28:34;;;;;;;7.20;4.95;;;12.30;91.90;;;;;;5002348;28;20132;-84
2021/06/01 00:31:00;;;;;;;8.35;5.22;;;12.30;92.00;;;;;;5011212;28;20067;-84
2021/06/01 00:33:26;;;;;;;10.50;5.00;;;12.30;92.20;;;;;;4999363;28;20034;-84
2021/06/01 00:35:51;;;;;;;10.35;5.10;;;12.30;92.20;;;;;;5010546;28;20053;-84
2021/06/01 00:38:17;;;;;;;7.75;4.30;;;12.20;92.20;;;;;;5001979;28;20057;-84
2021/06/01 00:40:43;;;;;;;7.35;4.22;;;12.20;92.30;;;;;;4998677;28;20134;-84
2021/06/01 00:43:08;;;;;;;9.52;5.15;;;12.20;92.40;;;;;;5005324;28;20326;-84
2021/06/01 00:45:34;;;;;;;6.15;4.45;;;12.10;92.40;;;;;;4995837;28;20042;-85
2021/06/01 00:47:59;;;;;;;7.63;4.53;;;12.10;92.50;;;;;;4997428;28;20038;-85
2021/06/01 00:50:28;;;;;;;7.55;4.53;;;12.10;92.50;;;;;;5000201;28;20038;-85
2021/06/01 00:52:54;;;;;;;8.35;4.57;;;12.10;92.50;;;;;;5016409;28;20034;-84
2021/06/01 00:55:20;;;;;;;6.57;4.70;;;12.10;92.60;;;;;;5016088;28;20165;-84
2021/06/01 00:57:46;;;;;;;7.85;5.68;;;12.00;92.50;;;;;;4996631;28;20050;-85
2021/06/01 01:00:30;;;;;;;8.57;5.20;;;12.00;92.50;;;;;;5000473;28;20638;-84
2021/06/01 01:02:56;;;;;;;9.10;5.00;;;12.00;92.60;;;;;;5011199;28;20283;-84
2021/06/01 01:05:26;;;;;;;8.80;5.05;;;11.90;92.70;;;;;;5001203;28;20157;-85
2021/06/01 01:08:20;;;;;;;5.57;4.20;;;11.90;92.90;;;;;;5002525;28;20060;-83
2021/06/01 01:10:49;;;;;;;11.00;4.25;;;11.90;92.90;;;;;;5021893;28;20474;-83
2021/06/01 01:13:18;;;;;;;8.10;5.30;;;11.80;92.90;;;;;;5011673;28;20038;-85
2021/06/01 01:15:46;;;;;;;7.63;4.78;;;11.80;93.00;;;;;;4999091;28;20050;-84
2021/06/01 01:18:17;;;;;;;7.05;5.00;;;11.70;93.00;;;;;;5004710;28;20057;-84
2021/06/01 01:20:58;;;;;;;6.38;4.97;;;11.80;93.10;;;;;;5021433;28;20405;-84
2021/06/01 01:23:28;;;;;;;5.95;4.43;;;11.70;93.20;;;;;;5023531;28;20039;-83
2021/06/01 01:26:22;;;;;;;6.93;5.15;;;11.70;93.20;;;;;;5001683;28;20140;-84
2021/06/01 01:29:11;;;;;;;6.68;4.60;;;11.70;93.10;;;;;;5009183;28;20403;-84
2021/06/01 01:31:47;;;;;;;7.93;4.80;;;11.60;93.30;;;;;;5002215;28;20169;-84
2021/06/01 01:34:15;;;;;;;7.57;4.20;;;11.60;93.40;;;;;;5010478;28;20034;-84
2021/06/01 01:36:43;;;;;;;7.78;5.07;;;11.60;93.50;;;;;;5002167;28;20065;-85
2021/06/01 01:39:09;;;;;;;6.90;4.90;;;11.50;93.50;;;;;;5010219;28;20424;-84
2021/06/01 01:41:37;;;;;;;6.00;4.50;;;11.50;93.60;;;;;;5011241;28;20042;-84
2021/06/01 01:44:08;;;;;;;6.07;4.38;;;11.50;93.60;;;;;;5010002;28;20085;-84
2021/06/01 01:49:09;;;;;;;6.88;4.47;;;11.50;93.70;;;;;;5000576;28;20049;-84
2021/06/01 01:51:40;;;;;;;9.50;5.47;;;11.50;93.70;;;;;;5010938;28;20034;-84
2021/06/01 01:54:17;;;;;;;6.30;4.80;;;11.50;93.70;;;;;;5010095;28;20034;-84
2021/06/01 01:56:53;;;;;;;8.27;5.32;;;11.50;93.70;;;;;;5021148;28;20046;-84
2021/06/01 01:59:21;;;;;;;8.55;5.40;;;11.50;93.70;;;;;;5011993;28;20158;-84
2021/06/01 02:01:50;;;;;;;8.05;5.63;;;11.50;93.70;;;;;;5009765;28;20049;-83
2021/06/01 02:04:21;;;;;;;8.13;5.32;;;11.40;93.80;;;;;;5004584;28;20034;-84
2021/06/01 02:06:47;;;;;;;6.38;4.75;;;11.40;93.90;;;;;;5008085;28;20409;-83
2021/06/01 02:09:13;;;;;;;7.50;5.28;;;11.40;93.90;;;;;;5004217;28;20038;-84
2021/06/01 02:11:38;;;;;;;9.82;5.07;;;11.40;93.90;;;;;;5002080;28;20054;-83
2021/06/01 02:14:04;;;;;;;8.80;5.82;;;11.40;93.90;;;;;;5005348;28;20118;-84
2021/06/01 02:16:38;;;;;;;10.35;5.70;;;11.40;93.90;;;;;;5004761;28;20037;-83
2021/06/01 02:19:05;;;;;;;8.65;5.60;;;11.40;94.00;;;;;;5005313;28;20135;-84
2021/06/01 02:24:33;;;;;;;9.40;5.85;;;11.30;94.00;;;;;;5007232;28;20042;-83
2021/06/01 02:27:30;;;;;;;12.77;5.72;;;11.30;94.00;;;;;;5005039;28;20042;-83
2021/06/01 02:30:02;;;;;;;12.00;5.70;;;11.20;94.00;;;;;;5000290;28;20034;-84
2021/06/01 02:32:41;;;;;;;7.60;4.90;;;11.20;94.00;;;;;;5013458;28;20362;-84
2021/06/01 02:35:15;;;;;;;9.80;6.32;;;11.20;94.00;;;;;;5004785;28;20035;-84
2021/06/01 02:37:45;;;;;;;10.07;5.85;;;11.10;93.90;;;;;;5004321;28;20018;-83
2021/06/01 02:40:13;;;;;;;8.45;5.78;;;11.10;93.90;;;;;;5017935;28;20373;-84
2021/06/01 02:42:40;;;;;;;8.95;5.70;;;11.10;93.90;;;;;;5007695;28;20042;-83
2021/06/01 02:45:07;;;;;;;7.63;5.38;;;11.10;93.90;;;;;;5002154;28;20172;-83
2021/06/01 02:47:33;;;;;;;7.53;5.18;;;11.00;94.00;;;;;;5000674;28;20061;-83
2021/06/01 02:50:03;;;;;;;7.53;5.20;;;11.00;94.00;;;;;;5000287;28;20038;-83
2021/06/01 02:52:30;;;;;;;8.85;5.97;;;11.00;94.10;;;;;;5004055;28;20121;-83
2021/06/01 02:54:55;;;;;;;7.97;5.95;;;11.00;94.20;;;;;;4999543;28;20042;-83
2021/06/01 02:57:21;;;;;;;6.75;5.00;;;11.00;94.30;;;;;;5009449;28;20053;-83
2021/06/01 02:59:48;;;;;;;9.30;5.53;;;11.00;94.30;;;;;;5005147;28;20208;-83
2021/06/01 03:02:13;;;;;;;8.20;6.03;;;11.00;94.30;;;;;;5014034;28;20322;-83
2021/06/01 03:04:52;;;;;;;9.25;5.97;;;11.00;94.30;;;;;;5031447;28;20056;-84
2021/06/01 03:07:19;;;;;;;9.45;6.40;;;11.00;94.30;;;;;;5010208;28;20053;-83
2021/06/01 03:09:44;;;;;;;11.43;6.68;;;11.00;94.40;;;;;;5003733;28;20060;-83
2021/06/01 03:12:36;;;;;;;11.13;7.25;;;11.10;94.50;;;;;;5001961;28;20389;-83
2021/06/01 03:15:04;;;;;;;9.97;6.63;;;11.10;94.50;;;;;;5020508;28;20050;-83
2021/06/01 03:17:29;;;;;;;10.13;6.47;;;11.10;94.50;;;;;;5001112;28;20042;-84
2021/06/01 03:19:55;;;;;;;8.95;6.28;;;11.10;94.60;;;;;;5000582;28;20063;-83
2021/06/01 03:22:20;;;;;;;10.85;7.70;;;11.10;94.60;;;;;;5018878;28;20578;-83
2021/06/01 03:24:46;;;;;;;10.90;7.10;;;11.10;94.60;;;;;;5005234;28;20482;-83
2021/06/01 03:27:12;;;;;;;8.95;6.80;;;11.10;94.70;;;;;;5012964;28;20046;-83
2021/06/01 03:29:38;;;;;;;10.20;7.38;;;11.10;94.70;;;;;;5010143;28;20038;-83
2021/06/01 03:32:05;;;;;;;10.27;7.20;;;11.10;94.70;;;;;;5014126;28;20056;-83
2021/06/01 03:34:31;;;;;;;10.38;6.80;;;11.20;94.70;;;;;;5003116;28;20096;-84
2021/06/01 03:36:56;;;;;;;10.43;6.70;;;11.20;94.80;;;;;;5012138;28;20046;-83
2021/06/01 03:39:22;;;;;;;10.65;7.00;;;11.20;94.70;;;;;;5020396;28;20153;-84
2021/06/01 03:41:48;;;;;;;8.20;6.50;;;11.20;94.70;;;;;;5003990;28;20113;-84
2021/06/01 03:44:14;;;;;;;10.70;8.05;;;11.30;94.80;;;;;;5003624;28;20057;-83
2021/06/01 03:46:40;;;;;;;10.57;7.53;;;11.30;94.70;;;;;;5019613;28;20106;-83
2021/06/01 03:49:05;;;;;;;10.57;7.15;;;11.30;94.70;;;;;;5005854;28;20120;-84
2021/06/01 03:51:31;;;;;;;13.10;7.00;;;11.30;94.70;;;;;;5010259;28;20124;-84
2021/06/01 03:53:57;;;;;;;13.82;7.90;;;11.30;94.70;;;;;;4999923;28;20401;-83
2021/06/01 03:56:23;;;;;;;10.15;7.10;;;11.40;94.70;;;;;;5019273;28;20834;-83
2021/06/01 03:58:48;;;;;;;10.90;7.22;;;11.40;94.60;;;;;;5003767;28;20049;-83
2021/06/01 04:01:14;;;;;;;11.48;7.30;;;11.50;94.60;;;;;;5000734;28;20275;-84
2021/06/01 04:03:42;;;;;;;9.25;7.30;;;11.50;94.60;;;;;;5010560;28;20139;-84
2021/06/01 04:06:09;;;;;;;8.02;5.93;;;11.50;94.60;;;;;;5007783;28;20049;-84
2021/06/01 04:08:36;;;;;;;9.98;6.85;;;11.60;94.60;;;;;;4998724;28;20125;-84
2021/06/01 04:11:02;;;;;;;10.68;6.47;;;11.60;94.50;;;;;;4998033;28;20391;-84
2021/06/01 04:13:27;;;;;;;9.73;6.53;;;11.70;94.50;;;;;;5002052;28;20046;-84
2021/06/01 04:15:53;;;;;;;9.45;6.60;;;11.70;94.40;;;;;;4998486;28;20081;-84
2021/06/01 04:18:18;;;;;;;10.45;6.88;;;11.80;94.30;;;;;;5004733;28;20051;-83
2021/06/01 04:20:44;;;;;;;11.18;6.45;;;11.90;94.20;;;;;;5017583;28;20054;-84
2021/06/01 04:23:09;;;;;;;8.57;6.35;;;11.90;94.20;;;;;;5002784;28;20165;-83
2021/06/01 04:25:35;;;;;;;9.25;5.82;;;11.90;94.00;;;;;;4997724;28;20121;-84
2021/06/01 04:28:00;;;;;;;9.70;6.55;;;12.00;93.90;;;;;;5007747;28;20054;-83
2021/06/01 04:30:26;;;;;;;10.13;6.90;;;12.00;93.80;;;;;;5007603;28;20041;-83
2021/06/01 04:32:52;;;;;;;11.15;6.20;;;12.00;93.80;;;;;;5009281;28;20041;-84
2021/06/01 04:35:17;;;;;;;11.35;5.95;;;12.10;93.70;;;;;;5000593;28;20155;-84
2021/06/01 04:37:43;;;;;;;10.13;6.18;;;12.10;93.70;;;;;;4996234;28;20046;-84
2021/06/01 04:40:12;;;;;;;8.25;5.70;;;12.10;93.60;;;;;;4999589;28;20646;-83
2021/06/01 04:42:37;;;;;;;10.13;6.75;;;12.10;93.70;;;;;;5003732;28;20038;-84
2021/06/01 04:45:03;;;;;;;8.77;5.43;;;12.10;93.30;;;;;;4994799;28;20054;-82
2021/06/01 04:47:29;;;;;;;11.55;5.85;;;12.30;93.20;;;;;;5003130;28;20578;-83
2021/06/01 04:49:55;;;;;;;7.25;5.60;;;12.30;93.10;;;;;;5002038;28;20038;-83
2021/06/01 04:52:20;;;;;;;11.50;6.38;;;12.30;93.00;;;;;;5016219;28;20047;-83
2021/06/01 04:54:46;;;;;;;8.18;5.60;;;12.40;92.80;;;;;;5003119;28;20046;-84
2021/06/01 04:57:11;;;;;;;8.80;5.90;;;12.40;92.60;;;;;;4995530;28;20070;-84
2021/06/01 04:59:37;;;;;;;9.50;5.15;;;12.50;92.70;;;;;;5006588;28;20042;-85
2021/06/01 05:02:04;;;;;;;7.50;5.70;;;12.50;92.60;;;;;;4999096;28;20145;-83
2021/06/01 05:04:30;;;;;;;6.95;5.30;;;12.50;92.30;;;;;;4995281;28;20117;-84
2021/06/01 05:06:58;;;;;;;7.45;5.15;;;12.60;92.20;;;;;;4996393;28;20131;-84
2021/06/01 05:09:24;;;;;;;8.90;5.95;;;12.70;92.10;;;;;;5008587;28;20034;-82
2021/06/01 05:11:50;;;;;;;7.82;5.18;;;12.70;92.00;;;;;;5004939;28;20049;-84
2021/06/01 05:14:16;;;;;;;12.73;5.10;;;12.80;91.80;;;;;;5008677;28;20064;-85
2021/06/01 05:16:41;;;;;;;10.55;5.55;;;12.90;91.80;;;;;;4997467;28;20061;-85
2021/06/01 05:19:07;;;;;;;10.02;5.47;;;12.90;91.70;;;;;;5008468;28;20037;-85
2021/06/01 05:21:33;;;;;;;8.25;5.00;;;13.00;91.30;;;;;;5005977;28;20129;-83
2021/06/01 05:23:58;;;;;;;9.25;5.28;;;13.10;91.00;;;;;;5010155;28;20053;-83
2021/06/01 05:26:24;;;;;;;7.55;4.78;;;13.10;90.60;;;;;;5002237;28;20056;-83
2021/06/01 05:28:50;;;;;;;10.27;4.55;;;13.20;90.40;;;;;;5001406;28;20088;-84
2021/06/01 05:31:21;;;;;;;7.40;4.25;;;13.20;90.00;;;;;;5044636;28;20091;-85
2021/06/01 05:33:52;;;;;;;7.50;3.88;;;13.30;90.00;;;;;;5001594;28;20455;-85
2021/06/01 05:36:18;;;;;;;6.22;4.22;;;13.40;88.90;;;;;;5032062;28;20052;-85
2021/06/01 05:38:43;;;;;;;5.25;3.92;;;13.50;88.40;;;;;;5031276;28;20072;-83
2021/06/01 05:41:09;;;;;;;7.47;4.15;;;13.60;88.20;;;;;;5003704;28;20046;-84
2021/06/01 05:43:35;;;;;;;6.47;3.92;;;13.60;87.70;;;;;;5021141;28;20053;-85
2021/06/01 05:46:01;;;;;;;8.75;4.93;;;13.70;87.50;;;;;;5007249;28;20077;-84
2021/06/01 05:48:26;;;;;;;8.15;4.90;;;13.80;86.10;;;;;;4998403;28;20411;-84
2021/06/01 05:50:54;;;;;;;7.47;4.55;;;13.80;86.30;;;;;;4999817;28;20124;-83
2021/06/01 05:53:20;;;;;;;9.38;5.30;;;13.90;86.40;;;;;;5002771;28;20053;-84
2021/06/01 05:55:46;;;;;;;6.85;4.28;;;14.00;86.50;;;;;;4995476;28;20624;-83
2021/06/01 05:58:12;;;;;;;9.95;4.20;;;14.10;85.90;;;;;;4997706;28;20085;-83
2021/06/01 06:00:37;;;;;;;4.88;3.47;;;14.20;85.40;;;;;;4999294;28;20445;-85
2021/06/01 06:03:03;;;;;;;7.47;4.20;;;14.30;83.30;;;;;;5012014;28;20136;-84
2021/06/01 06:05:29;;;;;;;8.75;4.28;;;14.40;83.30;;;;;;5005822;28;20080;-85
2021/06/01 06:07:55;;;;;;;6.93;4.20;;;14.50;83.10;;;;;;5015345;28;20042;-85
2021/06/01 06:10:21;;;;;;;6.93;3.92;;;14.60;83.00;;;;;;5011283;28;20065;-85
2021/06/01 06:12:46;;;;;;;7.70;4.47;;;14.70;82.80;;;;;;5009255;28;20114;-84
2021/06/01 06:15:19;;;;;;;5.85;3.85;;;14.80;82.90;;;;;;5011315;28;20061;-85
2021/06/01 06:17:56;;;;;;;10.18;4.45;;;14.90;81.30;;;;;;5029514;28;20038;-85
2021/06/01 06:20:21;;;;;;;8.35;4.95;;;15.00;81.50;;;;;;5003897;28;20419;-85
2021/06/01 06:22:47;;;;;;;8.20;4.63;;;15.10;81.70;;;;;;5013347;28;20128;-84
2021/06/01 06:25:14;;;;;;;9.68;4.32;;;15.20;81.60;;;;;;4998866;28;20310;-85
2021/06/01 06:27:39;;;;;;;12.05;3.95;;;15.30;80.90;;;;;;5020979;28;20054;-83
2021/06/01 06:30:07;;;;;;;6.15;3.50;;;15.50;80.70;;;;;;5015956;28;20046;-84
2021/06/01 06:32:33;;;;;;;7.93;4.18;;;15.60;79.70;;;;;;5010786;28;20109;-87
2021/06/01 06:34:59;;;;;;;4.13;3.08;;;15.80;78.70;;;;;;5009584;28;20406;-84
2021/06/01 06:37:25;;;;;;;7.18;2.70;;;15.90;78.40;;;;;;5008392;28;20219;-85
2021/06/01 06:39:51;;;;;;;5.78;2.97;;;16.00;77.60;;;;;;5012727;28;20048;-85
2021/06/01 06:42:17;;;;;;;6.57;3.28;;;16.10;76.70;;;;;;4999995;28;20097;-83
2021/06/01 06:44:51;;;;;;;6.85;3.03;;;16.20;76.90;;;;;;5015547;28;20410;-85
2021/06/01 06:47:24;;;;;;;4.60;3.40;;;16.40;75.90;;;;;;5023752;28;20124;-84
2021/06/01 06:49:50;;;;;;;;;;;16.50;75.00;;;;;;5010241;28;20104;-84
2021/06/01 06:52:15;;;;;;;7.85;2.90;;;16.60;75.40;;;;;;5015575;28;20285;-84
2021/06/01 06:54:41;;;;;;;9.38;2.60;;;16.80;74.70;;;;;;5005052;28;20041;-84
2021/06/01 06:57:07;;;;;;;4.57;2.38;;;17.00;71.80;;;;;;5015424;28;20138;-84
2021/06/01 06:59:33;;;;;;;4.53;2.25;;;17.20;70.60;;;;;;5010131;28;20085;-85
2021/06/01 07:01:58;;;;;;;4.63;2.20;;;17.30;70.90;;;;;;5018616;28;20042;-85
2021/06/01 07:04:25;;;;;;;5.65;2.45;;;17.50;70.30;;;;;;5003530;28;20129;-85
2021/06/01 07:06:54;;;;;;;4.25;2.45;;;17.70;71.20;;;;;;5002885;28;20712;-85
2021/06/01 07:09:20;;;;;;;3.35;1.85;;;17.90;68.90;;;;;;5013644;28;20034;-86
2021/06/01 07:11:45;;;;;;;5.57;1.85;;;18.00;68.00;;;;;;5011227;28;20150;-84
2021/06/01 07:14:17;;;;;;;5.40;2.33;;;18.20;65.80;;;;;;4996662;28;20041;-85
2021/06/01 07:16:43;;;;;;;6.78;2.45;;;18.40;66.40;;;;;;4995349;28;20042;-85
2021/06/01 07:19:09;;;;;;;3.13;1.50;;;18.50;67.80;;;;;;4995977;28;20042;-85
2021/06/01 07:21:34;;;;;;;2.30;1.20;;;18.60;65.60;;;;;;5005391;28;20302;-84
2021/06/01 07:24:00;;;;;;;3.47;1.60;;;18.80;65.10;;;;;;5004207;28;20042;-84
2021/06/01 07:26:25;;;;;;;2.50;1.45;;;19.00;64.30;;;;;;5021932;28;20038;-86
2021/06/01 07:28:51;;;;;;;4.47;1.40;;;19.10;64.80;;;;;;5005892;28;20034;-86
2021/06/01 07:31:17;;;;;;;3.22;1.25;;;19.40;62.60;;;;;;5015746;28;20552;-87
2021/06/01 07:33:44;;;;;;;7.20;1.50;;;19.50;62.40;;;;;;5012916;28;20658;-86
2021/06/01 07:36:09;;;;;;;2.55;1.50;;;19.70;63.80;;;;;;5010998;28;20382;-86
2021/06/01 07:38:35;;;;;;;3.30;1.13;;;19.90;61.80;;;;;;5010241;28;20065;-84
2021/06/01 07:41:02;;;;;;;1.85;1.25;;;20.00;60.50;;;;;;5013284;28;20044;-85
2021/06/01 07:43:28;;;;;;;1.67;1.23;;;20.00;59.90;;;;;;4995943;28;20038;-87
2021/06/01 07:46:02;;;;;;;2.38;1.17;;;20.20;58.50;;;;;;5013353;28;20060;-89
2021/06/01 07:48:27;;;;;;;3.10;1.58;;;20.30;61.80;;;;;;5010611;28;20557;-86
2021/06/01 07:50:53;;;;;;;3.58;1.08;;;20.40;60.20;;;;;;5000525;28;20038;-87
2021/06/01 07:53:19;;;;;;;2.75;1.20;;;20.50;60.50;;;;;;5012975;28;20030;-86
2021/06/01 07:55:44;;;;;;;4.30;1.30;;;20.60;61.90;;;;;;5002010;28;20117;-85
2021/06/01 07:58:10;;;;;;;3.03;1.08;;;20.80;60.30;;;;;;5009387;28;20068;-86
2021/06/01 08:00:36;;;;;;;2.95;1.20;;;20.90;60.40;;;;;;5003141;28;20030;-85
2021/06/01 08:03:01;;;;;;;4.32;1.48;;;21.10;58.80;;;;;;5006215;28;20280;-85
2021/06/01 08:05:27;;;;;;;2.67;1.10;;;21.20;59.10;;;;;;5013993;28;20698;-86
2021/06/01 08:07:53;;;;;;;2.95;1.13;;;21.40;58.30;;;;;;5013363;28;20439;-85
2021/06/01 08:10:22;;;;;;;6.20;1.55;;;21.50;58.50;;;;;;5015974;28;20474;-86
2021/06/01 08:12:50;;;;;;;8.45;1.20;;;21.70;56.40;;;;;;4996665;28;20344;-86
2021/06/01 08:15:20;;;;;;;2.40;0.93;;;21.80;57.90;;;;;;4997203;28;20088;-86
2021/06/01 08:17:46;;;;;;;1.40;0.90;;;22.00;59.20;;;;;;5001398;28;20327;-86
2021/06/01 08:20:27;;;;;;;4.22;1.00;;;22.10;56.00;;;;;;5013601;28;20103;-86
2021/06/01 08:22:52;;;;;;;6.55;1.25;;;22.20;55.30;;;;;;5001282;28;20100;-86
2021/06/01 08:25:19;;;;;;;1.70;0.90;;;22.40;55.60;;;;;;5006238;28;20042;-86
2021/06/01 08:27:45;;;;;;;1.27;0.80;;;22.50;56.90;;;;;;5000983;28;20128;-85
2021/06/01 08:30:11;;;;;;;2.05;0.82;;;22.60;50.70;;;;;;5010154;28;20605;-87
2021/06/01 08:32:37;;;;;;;2.90;1.08;;;22.60;51.70;;;;;;4998633;28;20038;-86
2021/06/01 08:35:04;;;;;;;2.08;0.88;;;22.70;54.40;;;;;;5011213;28;20085;-86
2021/06/01 08:37:30;;;;;;;2.30;1.25;;;22.80;52.70;;;;;;5017710;28;20736;-85
2021/06/01 08:39:55;;;;;;;2.45;0.85;;;22.90;50.40;;;;;;5009207;28;20075;-85
2021/06/01 08:42:22;;;;;;;1.50;0.70;;;23.00;53.70;;;;;;5010299;28;20038;-85
2021/06/01 08:44:49;;;;;;;2.33;1.00;;;23.10;51.60;;;;;;4994567;28;20404;-85
2021/06/01 08:47:18;;;;;;;3.72;0.95;;;23.20;52.80;;;;;;5005816;28;20094;-86
2021/06/01 08:49:46;;;;;;;2.33;1.20;;;23.20;52.10;;;;;;5001899;28;20034;-85
2021/06/01 08:52:11;;;;;;;1.92;1.15;;;23.20;51.10;;;;;;5010120;28;20364;-85
2021/06/01 08:54:37;;;;;;;1.48;0.98;;;23.20;50.90;;;;;;5011768;28;20112;-85
2021/06/01 08:57:03;;;;;;;5.05;1.45;;;23.20;53.10;;;;;;5012741;28;20042;-84
2021/06/01 08:59:28;;;;;;;2.65;1.10;;;23.20;53.20;;;;;;5009323;28;20414;-86
2021/06/01 09:01:54;;;;;;;3.53;0.90;;;23.20;51.30;;;;;;5010403;28;20049;-85
2021/06/01 09:04:20;;;;;;;10.02;1.25;;;23.30;51.90;;;;;;5004500;28;20070;-86
2021/06/01 09:06:59;;;;;;;2.95;1.05;;;23.40;50.90;;;;;;4993911;28;20461;-84
2021/06/01 09:09:38;;;;;;;2.33;0.98;;;23.40;50.00;;;;;;5014404;28;20034;-84
2021/06/01 09:12:24;;;;;;;1.98;1.20;;;23.50;52.20;;;;;;5024929;28;20077;-84
2021/06/01 09:22:54;;;;;;;3.10;1.10;;;23.80;50.40;;;;;;5013809;28;20044;-85
2021/06/01 09:28:00;;;;;;;2.65;0.90;;;24.00;51.30;;;;;;5000357;28;20294;-85
2021/06/01 09:30:39;;;;;;;2.08;0.98;;;24.10;53.60;;;;;;4998374;28;20030;-85
2021/06/01 09:33:15;;;;;;;2.35;1.02;;;24.00;52.80;;;;;;5013191;28;20448;-86
2021/06/01 09:35:52;;;;;;;3.60;1.40;;;24.00;51.80;;;;;;4998290;28;20256;-86
2021/06/01 09:38:20;;;;;;;4.32;1.65;;;24.10;52.60;;;;;;5002311;28;20302;-86
2021/06/01 09:40:46;;;;;;;2.55;1.20;;;24.20;51.20;;;;;;5016064;28;20030;-86
2021/06/01 09:43:15;;;;;;;2.05;1.08;;;24.10;52.50;;;;;;5013262;28;20042;-85
2021/06/01 09:45:44;;;;;;;4.57;1.00;;;24.20;52.00;;;;;;5008104;28;20041;-85
2021/06/01 09:48:12;;;;;;;2.75;1.10;;;24.40;49.20;;;;;;5028440;28;20126;-86
2021/06/01 09:53:28;;;;;;;2.15;1.20;;;24.70;51.00;;;;;;5013325;28;20066;-87
2021/06/01 09:55:55;;;;;;;3.15;1.48;;;24.80;50.10;;;;;;5015891;28;20041;-86
2021/06/01 09:58:34;;;;;;;3.25;1.55;;;24.90;49.00;;;;;;5016295;28;20274;-87
2021/06/01 10:01:06;;;;;;;3.85;1.50;;;24.90;50.90;;;;;;5013754;28;20036;-87
2021/06/01 10:03:45;;;;;;;3.65;1.45;;;24.90;50.80;;;;;;5016214;28;20034;-86
2021/06/01 10:06:11;;;;;;;2.90;1.23;;;25.00;54.60;;;;;;5012823;28;20065;-86
2021/06/01 10:08:52;;;;;;;3.92;1.38;;;25.10;52.30;;;;;;5008057;28;20042;-87
2021/06/01 10:11:18;;;;;;;3.10;1.35;;;25.20;49.90;;;;;;5002080;28;20080;-87
2021/06/01 10:13:44;;;;;;;4.00;1.40;;;25.20;51.70;;;;;;4999081;28;20038;-86
2021/06/01 10:16:16;;;;;;;3.33;1.55;;;25.20;50.90;;;;;;5015670;28;20065;-86
2021/06/01 10:18:44;;;;;;;4.15;1.63;;;25.30;54.40;;;;;;5016211;28;20068;-86
2021/06/01 10:21:12;;;;;;;2.67;1.48;;;25.40;50.80;;;;;;5032522;28;20017;-87
2021/06/01 10:23:47;;;;;;;3.50;1.55;;;25.40;52.10;;;;;;5023303;28;20041;-86
2021/06/01 10:26:14;;;;;;;3.10;1.40;;;25.60;50.70;;;;;;5011958;28;20157;-87
2021/06/01 10:28:45;;;;;;;3.10;1.75;;;25.60;50.20;;;;;;5021195;28;20035;-87
2021/06/01 10:31:13;;;;;;;3.63;1.75;;;25.70;52.00;;;;;;5021475;28;20101;-88
2021/06/01 10:33:47;;;;;;;3.15;1.58;;;25.70;52.70;;;;;;4999193;28;20061;-87
2021/06/01 10:44:54;;;;;;;6.05;2.28;;;26.00;50.10;;;;;;5008177;28;20503;-88
2021/06/01 10:50:26;;;;;;;6.68;1.52;;;25.90;50.00;;;;;;5007535;28;20080;-87
2021/06/01 10:53:11;;;;;;;5.95;1.50;;;25.90;49.40;;;;;;5016800;28;20052;-89
2021/06/01 10:55:54;;;;;;;6.55;1.42;;;25.90;50.30;;;;;;5033672;28;20469;-88
2021/06/01 10:58:24;;;;;;;;;;;26.00;52.80;;;;;;5001212;28;20362;-86
2021/06/01 11:04:14;;;;;;;2.40;2.13;;;26.40;50.80;;;;;;4992974;28;20038;-87
2021/06/01 11:06:58;;;;;;;2.05;1.50;;;26.40;47.80;;;;;;5012762;28;20041;-86
2021/06/01 11:09:33;;;;;;;1.77;1.50;;;26.40;50.20;;;;;;4998698;28;20137;-86
2021/06/01 11:11:59;;;;;;;4.45;1.85;;;26.40;48.70;;;;;;5016817;28;20042;-86
2021/06/01 11:14:32;;;;;;;4.28;1.90;;;26.30;47.20;;;;;;5006692;28;20091;-86
2021/06/01 11:17:01;;;;;;;3.50;1.85;;;26.10;48.50;;;;;;5011402;28;20069;-85
2021/06/01 11:19:54;;;;;;;2.72;1.73;;;26.00;50.10;;;;;;5031615;28;20037;-85
2021/06/01 11:22:28;;;;;;;4.22;1.60;;;25.90;50.30;;;;;;5029847;28;20030;-86
2021/06/01 11:25:15;;;;;;;5.30;2.10;;;25.90;51.50;;;;;;5008439;28;20139;-86
2021/06/01 11:33:20;;;;;;;3.10;2.03;;;26.10;48.20;;;;;;5004699;28;20045;-86
2021/06/01 11:35:53;;;;;;;2.72;1.25;;;26.10;49.50;;;;;;5010233;28;20116;-86
2021/06/01 11:43:17;;;;;;;2.72;1.65;;;26.10;49.60;;;;;;5013400;28;20049;-86
2021/06/01 11:46:10;;;;;;;6.15;1.75;;;26.10;52.00;;;;;;5013017;28;20100;-86
2021/06/01 11:51:25;;;;;;;3.55;1.52;;;26.40;47.30;;;;;;4995807;28;20378;-85
2021/06/01 11:54:04;;;;;;;3.00;1.60;;;26.60;48.20;;;;;;4998442;28;22032;-86
2021/06/01 12:02:19;;;;;;;3.58;1.77;;;26.80;48.60;;;;;;5012898;28;20044;-86
2021/06/01 12:18:28;;;;;;;2.35;1.48;;;26.80;49.90;;;;;;5005449;28;20123;-87
2021/06/01 12:20:54;;;;;;;3.85;1.85;;;27.00;48.60;;;;;;4996138;28;20060;-87
2021/06/01 12:23:32;;;;;;;3.70;2.03;;;27.00;47.80;;;;;;5002571;28;20485;-85
2021/06/01 12:26:16;;;;;;;3.05;1.60;;;27.10;49.50;;;;;;5010961;28;20046;-87
2021/06/01 12:32:23;;;;;;;4.07;3.00;;;27.30;50.70;;;;;;4982182;28;20034;-86
2021/06/01 13:19:45;;;;;;;3.03;1.65;;;27.80;51.20;;;;;;5000928;28;20045;-86
2021/06/01 13:21:50;;;;;;;3.85;1.85;;;27.50;49.50;;;;;;4998729;28;20078;-85
2021/06/01 13:30:18;;;;;;;4.35;1.90;;;27.10;49.40;;;;;;5019792;28;20111;-85
2021/06/01 13:39:02;;;;;;;4.47;1.90;;;26.50;49.60;;;;;;5011119;28;20101;-86
2021/06/01 13:46:47;;;;;;;2.95;2.10;;;26.80;52.10;;;;;;5021606;28;20288;-84
2021/06/01 13:49:20;;;;;;;1.63;1.38;;;27.00;50.10;;;;;;5019159;28;20130;-85
2021/06/01 13:59:59;;;;;;;2.50;2.15;;;27.70;47.30;;;;;;4999276;28;20038;-85
2021/06/01 14:02:42;;;;;;;6.75;2.25;;;27.80;49.00;;;;;;4998928;28;20096;-85
2021/06/01 14:11:10;;;;;;;2.70;1.92;;;28.00;47.60;;;;;;5006635;28;20051;-88
2021/06/01 14:30:04;;;;;;;2.38;1.48;;;27.50;48.40;;;;;;5006503;28;20080;-75
2021/06/01 14:38:13;;;;;;;2.70;1.30;;;27.40;47.30;;;;;;5011721;28;20048;-90
2021/06/01 15:23:06;;;;;;;2.90;1.92;;;27.20;50.20;;;;;;5018941;28;20041;-89
2021/06/01 15:53:27;;;;;;;3.10;1.75;;;26.80;49.20;;;;;;5005063;28;20199;-91
2021/06/01 16:13:26;;;;;;;2.95;1.85;;;26.50;50.10;;;;;;5001650;28;20535;-86
2021/06/01 16:15:33;;;;;;;3.88;2.58;;;26.40;49.50;;;;;;5009448;28;20043;-85
2021/06/01 16:29:40;;;;;;;2.78;1.75;;;25.90;51.90;;;;;;5010952;28;20840;-85
2021/06/01 16:31:46;;;;;;;4.13;2.33;;;25.90;50.40;;;;;;5014996;28;20033;-86
2021/06/01 17:04:36;;;;;;;3.72;2.72;;;24.30;57.60;;;;;;5006624;28;20348;-86
2021/06/01 17:07:24;;;;;;;4.10;2.70;;;24.20;57.60;;;;;;5007215;28;20053;-85
2021/06/01 17:12:50;;;;;;;3.72;2.25;;;24.20;58.10;;;;;;5004089;28;20423;-86
2021/06/01 17:15:18;;;;;;;3.70;2.65;;;24.20;58.00;;;;;;5005793;28;20034;-87
2021/06/01 17:17:53;;;;;;;3.53;2.40;;;24.20;57.70;;;;;;5009515;28;20115;-85
2021/06/01 17:31:22;;;;;;;4.20;3.00;;;24.50;58.10;;;;;;5014107;28;20041;-86
2021/06/01 17:36:32;;;;;;;2.95;2.35;;;24.60;56.00;;;;;;5017958;28;20072;-86
2021/06/01 17:38:59;;;;;;;5.63;2.33;;;24.60;55.80;;;;;;5010202;28;20103;-84
2021/06/01 17:41:32;;;;;;;4.35;3.05;;;24.70;56.50;;;;;;5005619;28;20357;-85
2021/06/01 17:44:03;;;;;;;3.95;2.72;;;24.70;57.70;;;;;;5013367;28;20037;-85
2021/06/01 17:46:33;;;;;;;4.40;2.58;;;24.70;58.00;;;;;;5006399;28;20057;-86
2021/06/01 17:49:00;;;;;;;3.58;2.45;;;24.80;58.40;;;;;;5007096;28;20041;-85
2021/06/01 17:51:28;;;;;;;4.70;2.40;;;24.80;58.90;;;;;;5007767;28;20589;-85
2021/06/01 17:53:55;;;;;;;4.22;2.65;;;24.90;58.00;;;;;;5003422;28;20049;-85
2021/06/01 17:56:24;;;;;;;3.75;3.00;;;24.90;58.30;;;;;;5021984;28;20038;-86
2021/06/01 17:58:51;;;;;;;4.53;3.03;;;24.90;58.40;;;;;;5030607;28;20039;-85
2021/06/01 18:01:21;;;;;;;5.35;2.50;;;24.90;57.90;;;;;;5014990;28;20041;-87
2021/06/01 18:06:26;;;;;;;3.17;2.35;;;24.90;58.60;;;;;;5013332;28;20049;-86
2021/06/01 18:08:58;;;;;;;;;;;24.90;59.50;;;;;;5017072;28;20061;-86
2021/06/01 18:42:41;;;;;;;5.82;3.03;;;24.20;60.20;;;;;;4997014;28;20042;-88